Terminal Aerodrome Forecast
Issued by NWS Louisville, KY

Home | Current Version | Previous Version | Text Only | Print | Product List | Glossary On
Versions: 1 2 3 4 5 6 7 8 9 10 11 12 13
415
FTUS43 KLMK 151123
TAFBWG
TAF
KBWG 151123Z 1512/1612 28006KT P6SM BKN040
     FM151700 27009G17KT P6SM BKN050
     FM160000 22004KT P6SM SCT050=

USA.gov is the U.S. government's official web portal to all federal, state and local government web resources and services.